Exning, United Kingdom
Current Conditions -  °F | °C
As of 2:58 AM on Saturday 01 Nov 2014 (Local Time) from EGUN Reporting Station
Scattered Clouds Scattered Clouds  
Wind Chill: 59°   Ceiling: Unl
Heat Index: 59°   Visibility: 6mi
Dew Point: 54°   Wind: 9mph
Humidity: 84%   Direction: 170°S
Pressure: 29.92"   Gusts: NA
Location:  52.27°N, 0.37°E
Report Text: EGUN 010258Z AUTO 17008KT 9999 SCT021 15/12 A2992 RMK AO2 SLP135 T01510124 57007
Loading
Personal Weather Stations






























Interactive Weather Map New forecast layout! Learn more

10-Day Weather Forecast

Advertisements
Track Severe Weather on mobile